SWA3161 KBWI-KISP
Flight info
| Callsign | SWA3161 |
|---|---|
| Flight time | 0h 59m |
| Altitude | 21000 |
| Route | DUKPN1 DONIL DCT MAEVE SARDI1 |
| Aircraft | B738/M-SADE2E3GIJ4RWZ/LB1D1 |
Departure
| Time | 2026-04-28 02:36 |
|---|---|
| Airport | Baltimore/Washington International Thurgood Marshall Airport (KBWI) |
Arrival
| Time | 2026-04-28 03:36 |
|---|---|
| Airport | Long Island MacArthur Airport (KISP) |
| Time | Latitude | Longitude | Altitude | Speed | Heading |
|---|---|---|---|---|---|
| 2026-04-28 02:14 | 39.17677 | -76.66888 | 143 ft | 0 kts | 248° |
| 2026-04-28 02:27 | 39.17678 | -76.66887 | 143 ft | 1 kts | 248° |
| 2026-04-28 02:27 | 39.17684 | -76.66870 | 143 ft | 2 kts | 229° |
| 2026-04-28 02:27 | 39.17696 | -76.66857 | 143 ft | 2 kts | 212° |
| 2026-04-28 02:28 | 39.17709 | -76.66849 | 143 ft | 2 kts | 194° |
| 2026-04-28 02:28 | 39.17724 | -76.66847 | 143 ft | 2 kts | 176° |
| 2026-04-28 02:28 | 39.17739 | -76.66850 | 143 ft | 2 kts | 158° |
| 2026-04-28 02:28 | 39.17748 | -76.66856 | 144 ft | 0 kts | 146° |
| 2026-04-28 02:29 | 39.17753 | -76.66861 | 144 ft | 0 kts | 144° |
| 2026-04-28 02:30 | 39.17748 | -76.66856 | 143 ft | 5 kts | 142° |
| 2026-04-28 02:31 | 39.17696 | -76.66805 | 143 ft | 12 kts | 143° |
| 2026-04-28 02:31 | 39.17596 | -76.66774 | 139 ft | 18 kts | 184° |
| 2026-04-28 02:31 | 39.17491 | -76.66846 | 131 ft | 17 kts | 216° |
| 2026-04-28 02:31 | 39.17473 | -76.66976 | 127 ft | 16 kts | 281° |
| 2026-04-28 02:32 | 39.17535 | -76.67098 | 126 ft | 16 kts | 320° |
| 2026-04-28 02:32 | 39.17619 | -76.67174 | 130 ft | 11 kts | 324° |
| 2026-04-28 02:32 | 39.17688 | -76.67239 | 128 ft | 11 kts | 322° |
| 2026-04-28 02:32 | 39.17747 | -76.67297 | 130 ft | 11 kts | 323° |
| 2026-04-28 02:33 | 39.17832 | -76.67378 | 130 ft | 18 kts | 326° |
| 2026-04-28 02:33 | 39.17949 | -76.67481 | 128 ft | 23 kts | 321° |
| 2026-04-28 02:33 | 39.18097 | -76.67622 | 128 ft | 24 kts | 324° |
| 2026-04-28 02:33 | 39.18220 | -76.67733 | 130 ft | 21 kts | 323° |
| 2026-04-28 02:34 | 39.18343 | -76.67847 | 129 ft | 21 kts | 324° |
| 2026-04-28 02:34 | 39.18470 | -76.67963 | 130 ft | 22 kts | 325° |
| 2026-04-28 02:34 | 39.18564 | -76.68054 | 130 ft | 8 kts | 315° |
| 2026-04-28 02:34 | 39.18573 | -76.68091 | 129 ft | 0 kts | 267° |
| 2026-04-28 02:35 | 39.18569 | -76.68114 | 130 ft | 7 kts | 251° |
| 2026-04-28 02:35 | 39.18504 | -76.68166 | 130 ft | 16 kts | 160° |
| 2026-04-28 02:36 | 39.18373 | -76.68045 | 129 ft | 38 kts | 144° |
| 2026-04-28 02:36 | 39.17896 | -76.67602 | 133 ft | 130 kts | 142° |
| 2026-04-28 02:36 | 39.16971 | -76.66765 | 417 ft | 185 kts | 145° |
| 2026-04-28 02:36 | 39.15972 | -76.65855 | 1792 ft | 180 kts | 137° |
| 2026-04-28 02:37 | 39.15354 | -76.64499 | 2751 ft | 181 kts | 108° |
| 2026-04-28 02:37 | 39.14999 | -76.62912 | 3285 ft | 192 kts | 109° |
| 2026-04-28 02:37 | 39.14498 | -76.61261 | 3773 ft | 206 kts | 114° |
| 2026-04-28 02:37 | 39.13873 | -76.59499 | 4210 ft | 226 kts | 115° |
| 2026-04-28 02:38 | 39.13193 | -76.57622 | 4805 ft | 241 kts | 114° |
| 2026-04-28 02:38 | 39.12604 | -76.55512 | 4977 ft | 255 kts | 99° |
| 2026-04-28 02:38 | 39.12516 | -76.53228 | 4986 ft | 257 kts | 89° |
| 2026-04-28 02:38 | 39.12578 | -76.50954 | 4981 ft | 255 kts | 89° |
| 2026-04-28 02:39 | 39.12584 | -76.48608 | 5190 ft | 271 kts | 91° |
| 2026-04-28 02:39 | 39.12523 | -76.46271 | 6291 ft | 263 kts | 92° |
| 2026-04-28 02:39 | 39.12435 | -76.43883 | 7045 ft | 271 kts | 92° |
| 2026-04-28 02:39 | 39.12339 | -76.41470 | 7813 ft | 276 kts | 92° |
| 2026-04-28 02:40 | 39.12241 | -76.38993 | 8498 ft | 282 kts | 91° |
| 2026-04-28 02:40 | 39.12142 | -76.36443 | 9156 ft | 290 kts | 91° |
| 2026-04-28 02:40 | 39.12046 | -76.33839 | 9849 ft | 298 kts | 91° |
| 2026-04-28 02:40 | 39.11946 | -76.31180 | 10645 ft | 301 kts | 91° |
| 2026-04-28 02:41 | 39.11841 | -76.28455 | 11449 ft | 305 kts | 90° |
| 2026-04-28 02:41 | 39.11736 | -76.25754 | 12238 ft | 307 kts | 91° |
| 2026-04-28 02:41 | 39.11630 | -76.23024 | 13050 ft | 310 kts | 90° |
| 2026-04-28 02:41 | 39.11520 | -76.20216 | 13840 ft | 315 kts | 90° |
| 2026-04-28 02:42 | 39.11410 | -76.17403 | 14577 ft | 319 kts | 90° |
| 2026-04-28 02:42 | 39.11297 | -76.14560 | 15285 ft | 324 kts | 90° |
| 2026-04-28 02:42 | 39.11183 | -76.11684 | 16030 ft | 328 kts | 90° |
| 2026-04-28 02:42 | 39.11065 | -76.08742 | 16698 ft | 332 kts | 90° |
| 2026-04-28 02:43 | 39.10945 | -76.05721 | 16981 ft | 346 kts | 90° |
| 2026-04-28 02:43 | 39.10821 | -76.02540 | 16987 ft | 368 kts | 90° |
| 2026-04-28 02:43 | 39.10689 | -75.99188 | 16984 ft | 387 kts | 90° |
| 2026-04-28 02:43 | 39.10545 | -75.95675 | 16983 ft | 394 kts | 90° |
| 2026-04-28 02:44 | 39.10396 | -75.92154 | 16983 ft | 393 kts | 90° |
| 2026-04-28 02:44 | 39.10245 | -75.88637 | 16980 ft | 392 kts | 90° |
| 2026-04-28 02:44 | 39.10096 | -75.85166 | 16982 ft | 392 kts | 90° |
| 2026-04-28 02:44 | 39.09944 | -75.81652 | 16981 ft | 393 kts | 90° |
| 2026-04-28 02:45 | 39.09792 | -75.78159 | 16981 ft | 392 kts | 90° |
| 2026-04-28 02:45 | 39.09641 | -75.74667 | 16981 ft | 392 kts | 90° |
| 2026-04-28 02:45 | 39.09489 | -75.71169 | 16984 ft | 393 kts | 90° |
| 2026-04-28 02:45 | 39.09337 | -75.67673 | 16980 ft | 391 kts | 90° |
| 2026-04-28 02:46 | 39.09184 | -75.64189 | 16979 ft | 393 kts | 90° |
| 2026-04-28 02:46 | 39.09029 | -75.60707 | 16975 ft | 391 kts | 90° |
| 2026-04-28 02:46 | 39.08872 | -75.57194 | 16970 ft | 394 kts | 90° |
| 2026-04-28 02:46 | 39.08714 | -75.53666 | 16974 ft | 392 kts | 90° |
| 2026-04-28 02:47 | 39.08557 | -75.50203 | 16977 ft | 395 kts | 90° |
| 2026-04-28 02:47 | 39.08399 | -75.46674 | 16979 ft | 394 kts | 90° |
| 2026-04-28 02:47 | 39.08238 | -75.43145 | 16980 ft | 393 kts | 90° |
| 2026-04-28 02:47 | 39.08078 | -75.39671 | 16983 ft | 395 kts | 90° |
| 2026-04-28 02:48 | 39.07913 | -75.36118 | 16984 ft | 396 kts | 90° |
| 2026-04-28 02:48 | 39.07721 | -75.32587 | 16978 ft | 395 kts | 92° |
| 2026-04-28 02:48 | 39.07365 | -75.29100 | 16976 ft | 399 kts | 97° |
| 2026-04-28 02:48 | 39.06813 | -75.25640 | 16971 ft | 398 kts | 101° |
| 2026-04-28 02:49 | 39.06134 | -75.22163 | 16971 ft | 399 kts | 102° |
| 2026-04-28 02:49 | 39.05418 | -75.18745 | 16965 ft | 397 kts | 103° |
| 2026-04-28 02:49 | 39.04685 | -75.15300 | 16966 ft | 398 kts | 103° |
| 2026-04-28 02:49 | 39.03968 | -75.11896 | 16973 ft | 399 kts | 102° |
| 2026-04-28 02:50 | 39.03256 | -75.08458 | 16974 ft | 397 kts | 102° |
| 2026-04-28 02:50 | 39.02551 | -75.05015 | 16982 ft | 398 kts | 102° |
| 2026-04-28 02:50 | 39.01855 | -75.01579 | 16986 ft | 398 kts | 101° |
| 2026-04-28 02:50 | 39.01159 | -74.98135 | 16986 ft | 397 kts | 101° |
| 2026-04-28 02:51 | 39.00468 | -74.94713 | 16987 ft | 399 kts | 101° |
| 2026-04-28 02:51 | 38.99775 | -74.91277 | 16986 ft | 398 kts | 102° |
| 2026-04-28 02:51 | 38.99077 | -74.87824 | 16987 ft | 399 kts | 101° |
| 2026-04-28 02:51 | 38.98383 | -74.84390 | 16985 ft | 398 kts | 102° |
| 2026-04-28 02:52 | 38.97765 | -74.80925 | 16974 ft | 398 kts | 96° |
| 2026-04-28 02:52 | 38.97612 | -74.77427 | 16978 ft | 392 kts | 81° |
| 2026-04-28 02:52 | 38.98285 | -74.74137 | 16980 ft | 380 kts | 60° |
| 2026-04-28 02:52 | 38.99728 | -74.71303 | 16981 ft | 373 kts | 44° |
| 2026-04-28 02:53 | 39.01598 | -74.69062 | 16982 ft | 369 kts | 36° |
| 2026-04-28 02:53 | 39.03583 | -74.66965 | 16971 ft | 367 kts | 35° |
| 2026-04-28 02:53 | 39.05549 | -74.64922 | 16976 ft | 367 kts | 35° |
| 2026-04-28 02:53 | 39.07538 | -74.62856 | 16973 ft | 366 kts | 35° |
| 2026-04-28 02:54 | 39.09495 | -74.60812 | 16971 ft | 366 kts | 35° |
| 2026-04-28 02:54 | 39.11477 | -74.58734 | 16972 ft | 366 kts | 35° |
| 2026-04-28 02:54 | 39.13462 | -74.56645 | 16971 ft | 368 kts | 35° |
| 2026-04-28 02:54 | 39.15414 | -74.54576 | 16977 ft | 368 kts | 36° |
| 2026-04-28 02:55 | 39.17394 | -74.52436 | 16980 ft | 368 kts | 36° |
| 2026-04-28 02:55 | 39.19331 | -74.50320 | 16983 ft | 367 kts | 36° |
| 2026-04-28 02:55 | 39.21254 | -74.48212 | 16981 ft | 367 kts | 36° |
| 2026-04-28 02:55 | 39.23196 | -74.46079 | 16983 ft | 366 kts | 36° |
| 2026-04-28 02:56 | 39.25142 | -74.43948 | 16987 ft | 366 kts | 36° |
| 2026-04-28 02:56 | 39.27084 | -74.41822 | 16984 ft | 367 kts | 36° |
| 2026-04-28 02:56 | 39.29028 | -74.39694 | 16991 ft | 365 kts | 36° |
| 2026-04-28 02:56 | 39.30947 | -74.37585 | 16991 ft | 367 kts | 36° |
| 2026-04-28 02:57 | 39.32899 | -74.35438 | 16992 ft | 365 kts | 36° |
| 2026-04-28 02:57 | 39.34836 | -74.33303 | 16989 ft | 365 kts | 37° |
| 2026-04-28 02:57 | 39.36754 | -74.31187 | 16990 ft | 363 kts | 37° |
| 2026-04-28 02:57 | 39.38664 | -74.29079 | 16994 ft | 364 kts | 37° |
| 2026-04-28 02:58 | 39.40607 | -74.26936 | 16989 ft | 364 kts | 37° |
| 2026-04-28 02:58 | 39.42527 | -74.24815 | 16986 ft | 365 kts | 37° |
| 2026-04-28 02:58 | 39.44461 | -74.22678 | 16994 ft | 364 kts | 37° |
| 2026-04-28 02:58 | 39.46361 | -74.20576 | 16991 ft | 362 kts | 37° |
| 2026-04-28 02:59 | 39.48264 | -74.18463 | 16987 ft | 364 kts | 37° |
| 2026-04-28 02:59 | 39.50201 | -74.16307 | 16981 ft | 363 kts | 37° |
| 2026-04-28 02:59 | 39.52069 | -74.14127 | 16984 ft | 365 kts | 40° |
| 2026-04-28 02:59 | 39.53834 | -74.11739 | 16982 ft | 369 kts | 44° |
| 2026-04-28 03:00 | 39.55499 | -74.09225 | 16984 ft | 367 kts | 46° |
| 2026-04-28 03:00 | 39.57103 | -74.06673 | 16985 ft | 368 kts | 47° |
| 2026-04-28 03:00 | 39.58702 | -74.04096 | 16987 ft | 368 kts | 47° |
| 2026-04-28 03:00 | 39.60321 | -74.01498 | 16985 ft | 366 kts | 46° |
| 2026-04-28 03:01 | 39.61905 | -73.98974 | 16983 ft | 365 kts | 46° |
| 2026-04-28 03:01 | 39.63528 | -73.96408 | 16988 ft | 365 kts | 46° |
| 2026-04-28 03:01 | 39.65128 | -73.93890 | 16985 ft | 364 kts | 46° |
| 2026-04-28 03:01 | 39.66741 | -73.91351 | 16985 ft | 363 kts | 46° |
| 2026-04-28 03:02 | 39.68337 | -73.88841 | 16979 ft | 364 kts | 46° |
| 2026-04-28 03:02 | 39.69953 | -73.86299 | 16988 ft | 364 kts | 46° |
| 2026-04-28 03:02 | 39.71550 | -73.83784 | 16983 ft | 363 kts | 46° |
| 2026-04-28 03:02 | 39.73164 | -73.81238 | 16985 ft | 364 kts | 46° |
| 2026-04-28 03:03 | 39.74780 | -73.78686 | 16984 ft | 365 kts | 46° |
| 2026-04-28 03:03 | 39.76368 | -73.76174 | 16982 ft | 364 kts | 46° |
| 2026-04-28 03:03 | 39.77979 | -73.73626 | 16983 ft | 364 kts | 46° |
| 2026-04-28 03:03 | 39.79589 | -73.71080 | 16978 ft | 364 kts | 46° |
| 2026-04-28 03:04 | 39.81190 | -73.68546 | 16989 ft | 367 kts | 46° |
| 2026-04-28 03:04 | 39.82810 | -73.65978 | 16985 ft | 365 kts | 46° |
| 2026-04-28 03:04 | 39.84423 | -73.63421 | 16983 ft | 365 kts | 46° |
| 2026-04-28 03:04 | 39.86005 | -73.60907 | 16987 ft | 363 kts | 46° |
| 2026-04-28 03:05 | 39.87613 | -73.58354 | 16978 ft | 364 kts | 46° |
| 2026-04-28 03:05 | 39.89226 | -73.55799 | 16988 ft | 362 kts | 45° |
| 2026-04-28 03:05 | 39.90884 | -73.53380 | 16986 ft | 361 kts | 41° |
| 2026-04-28 03:05 | 39.92676 | -73.51105 | 16985 ft | 360 kts | 38° |
| 2026-04-28 03:06 | 39.94529 | -73.48929 | 16983 ft | 360 kts | 37° |
| 2026-04-28 03:06 | 39.96401 | -73.46782 | 16987 ft | 359 kts | 37° |
| 2026-04-28 03:06 | 39.98272 | -73.44629 | 16984 ft | 359 kts | 37° |
| 2026-04-28 03:06 | 40.00138 | -73.42462 | 16984 ft | 358 kts | 38° |
| 2026-04-28 03:07 | 40.01979 | -73.40299 | 16975 ft | 357 kts | 37° |
| 2026-04-28 03:07 | 40.03846 | -73.38097 | 16975 ft | 358 kts | 38° |
| 2026-04-28 03:07 | 40.05686 | -73.35915 | 16970 ft | 356 kts | 38° |
| 2026-04-28 03:07 | 40.07516 | -73.33739 | 16965 ft | 356 kts | 38° |
| 2026-04-28 03:08 | 40.09345 | -73.31567 | 16965 ft | 358 kts | 38° |
| 2026-04-28 03:08 | 40.11174 | -73.29391 | 16968 ft | 358 kts | 38° |
| 2026-04-28 03:08 | 40.13038 | -73.27176 | 16968 ft | 370 kts | 38° |
| 2026-04-28 03:08 | 40.14989 | -73.24862 | 16972 ft | 387 kts | 38° |
| 2026-04-28 03:09 | 40.17009 | -73.22464 | 16961 ft | 398 kts | 39° |
| 2026-04-28 03:09 | 40.19043 | -73.20032 | 16792 ft | 390 kts | 39° |
| 2026-04-28 03:09 | 40.21008 | -73.17674 | 16436 ft | 387 kts | 39° |
| 2026-04-28 03:09 | 40.23026 | -73.15255 | 15896 ft | 396 kts | 39° |
| 2026-04-28 03:10 | 40.25030 | -73.12852 | 15255 ft | 391 kts | 39° |
| 2026-04-28 03:10 | 40.27020 | -73.10465 | 14602 ft | 385 kts | 39° |
| 2026-04-28 03:10 | 40.28982 | -73.08109 | 13913 ft | 380 kts | 39° |
| 2026-04-28 03:10 | 40.30898 | -73.05810 | 13243 ft | 375 kts | 39° |
| 2026-04-28 03:11 | 40.32814 | -73.03511 | 12576 ft | 371 kts | 40° |
| 2026-04-28 03:11 | 40.34687 | -73.01264 | 11906 ft | 366 kts | 40° |
| 2026-04-28 03:11 | 40.36541 | -72.99039 | 11417 ft | 356 kts | 40° |
| 2026-04-28 03:11 | 40.38321 | -72.96896 | 11129 ft | 342 kts | 40° |
| 2026-04-28 03:12 | 40.40038 | -72.94829 | 10958 ft | 325 kts | 41° |
| 2026-04-28 03:12 | 40.41662 | -72.92873 | 10808 ft | 310 kts | 41° |
| 2026-04-28 03:12 | 40.43201 | -72.91016 | 10667 ft | 296 kts | 41° |
| 2026-04-28 03:12 | 40.44706 | -72.89200 | 10524 ft | 292 kts | 41° |
| 2026-04-28 03:13 | 40.46190 | -72.87413 | 10370 ft | 283 kts | 41° |
| 2026-04-28 03:13 | 40.47598 | -72.85712 | 10232 ft | 272 kts | 41° |
| 2026-04-28 03:13 | 40.48959 | -72.84066 | 10038 ft | 262 kts | 41° |
| 2026-04-28 03:13 | 40.50283 | -72.82465 | 9692 ft | 260 kts | 41° |
| 2026-04-28 03:14 | 40.51651 | -72.80911 | 9387 ft | 255 kts | 35° |
| 2026-04-28 03:14 | 40.53193 | -72.79886 | 9107 ft | 250 kts | 14° |
| 2026-04-28 03:14 | 40.54926 | -72.79724 | 8760 ft | 249 kts | 1° |
| 2026-04-28 03:14 | 40.56673 | -72.79809 | 8366 ft | 249 kts | 1° |
| 2026-04-28 03:15 | 40.58395 | -72.79830 | 8043 ft | 245 kts | 4° |
| 2026-04-28 03:15 | 40.60072 | -72.79794 | 7739 ft | 243 kts | 4° |
| 2026-04-28 03:15 | 40.61769 | -72.79742 | 7372 ft | 242 kts | 5° |
| 2026-04-28 03:15 | 40.63431 | -72.79695 | 7326 ft | 238 kts | 5° |
| 2026-04-28 03:16 | 40.65115 | -72.79648 | 7221 ft | 245 kts | 5° |
| 2026-04-28 03:16 | 40.66813 | -72.79602 | 6966 ft | 244 kts | 5° |
| 2026-04-28 03:16 | 40.68491 | -72.79563 | 6715 ft | 239 kts | 5° |
| 2026-04-28 03:16 | 40.70152 | -72.79523 | 6457 ft | 237 kts | 5° |
| 2026-04-28 03:17 | 40.71792 | -72.79481 | 6216 ft | 230 kts | 5° |
| 2026-04-28 03:17 | 40.74907 | -72.79401 | 5685 ft | 218 kts | 5° |
| 2026-04-28 03:17 | 40.76391 | -72.79363 | 5429 ft | 214 kts | 6° |
| 2026-04-28 03:18 | 40.77877 | -72.79325 | 5170 ft | 210 kts | 5° |
| 2026-04-28 03:18 | 40.79323 | -72.79287 | 4912 ft | 206 kts | 5° |
| 2026-04-28 03:18 | 40.80742 | -72.79251 | 4656 ft | 203 kts | 5° |
| 2026-04-28 03:18 | 40.82154 | -72.79215 | 4398 ft | 201 kts | 5° |
| 2026-04-28 03:19 | 40.83536 | -72.79179 | 4143 ft | 198 kts | 5° |
| 2026-04-28 03:19 | 40.84924 | -72.79143 | 3881 ft | 196 kts | 5° |
| 2026-04-28 03:19 | 40.86282 | -72.79108 | 3625 ft | 195 kts | 6° |
| 2026-04-28 03:19 | 40.87607 | -72.79075 | 3349 ft | 189 kts | 6° |
| 2026-04-28 03:20 | 40.88902 | -72.79197 | 3084 ft | 188 kts | 345° |
| 2026-04-28 03:20 | 40.90007 | -72.80129 | 2838 ft | 191 kts | 326° |
| 2026-04-28 03:20 | 40.91015 | -72.81290 | 2573 ft | 189 kts | 324° |
| 2026-04-28 03:20 | 40.92014 | -72.82416 | 2313 ft | 189 kts | 325° |
| 2026-04-28 03:21 | 40.93033 | -72.83533 | 2067 ft | 189 kts | 324° |
| 2026-04-28 03:21 | 40.94032 | -72.84618 | 2035 ft | 188 kts | 325° |
| 2026-04-28 03:21 | 40.95057 | -72.85723 | 2034 ft | 191 kts | 324° |
| 2026-04-28 03:21 | 40.96090 | -72.86832 | 2030 ft | 191 kts | 326° |
| 2026-04-28 03:22 | 40.97201 | -72.87743 | 2029 ft | 184 kts | 352° |
| 2026-04-28 03:22 | 40.98384 | -72.87508 | 2027 ft | 173 kts | 39° |
| 2026-04-28 03:22 | 40.99003 | -72.86207 | 2036 ft | 170 kts | 76° |
| 2026-04-28 03:22 | 40.99322 | -72.84686 | 2040 ft | 171 kts | 71° |
| 2026-04-28 03:23 | 40.99424 | -72.83107 | 2037 ft | 177 kts | 105° |
| 2026-04-28 03:23 | 40.98683 | -72.81924 | 2037 ft | 187 kts | 151° |
| 2026-04-28 03:23 | 40.97385 | -72.81798 | 2038 ft | 198 kts | 199° |
| 2026-04-28 03:23 | 40.96277 | -72.82954 | 2064 ft | 217 kts | 231° |
| 2026-04-28 03:24 | 40.95344 | -72.84611 | 2062 ft | 234 kts | 234° |
| 2026-04-28 03:24 | 40.94429 | -72.86418 | 2059 ft | 236 kts | 237° |
| 2026-04-28 03:24 | 40.93549 | -72.88251 | 2054 ft | 236 kts | 237° |
| 2026-04-28 03:24 | 40.92665 | -72.90102 | 2056 ft | 240 kts | 237° |
| 2026-04-28 03:25 | 40.91727 | -72.91930 | 2060 ft | 247 kts | 229° |
| 2026-04-28 03:25 | 40.90491 | -72.93620 | 2064 ft | 265 kts | 222° |
| 2026-04-28 03:25 | 40.89118 | -72.95290 | 2048 ft | 265 kts | 221° |
| 2026-04-28 03:25 | 40.87742 | -72.96931 | 2045 ft | 267 kts | 221° |
| 2026-04-28 03:26 | 40.86357 | -72.98580 | 2044 ft | 269 kts | 221° |
| 2026-04-28 03:26 | 40.84972 | -73.00233 | 2043 ft | 269 kts | 221° |
| 2026-04-28 03:26 | 40.83584 | -73.01894 | 2042 ft | 268 kts | 221° |
| 2026-04-28 03:26 | 40.82220 | -73.03535 | 2042 ft | 269 kts | 221° |
| 2026-04-28 03:27 | 40.80825 | -73.05213 | 2037 ft | 268 kts | 221° |
| 2026-04-28 03:27 | 40.79451 | -73.06865 | 2037 ft | 268 kts | 221° |
| 2026-04-28 03:27 | 40.78086 | -73.08501 | 2038 ft | 270 kts | 220° |
| 2026-04-28 03:27 | 40.76636 | -73.10097 | 2035 ft | 267 kts | 217° |
| 2026-04-28 03:28 | 40.75173 | -73.11597 | 2039 ft | 270 kts | 216° |
| 2026-04-28 03:28 | 40.73695 | -73.13102 | 2037 ft | 265 kts | 216° |
| 2026-04-28 03:28 | 40.72221 | -73.14608 | 2042 ft | 270 kts | 216° |
| 2026-04-28 03:28 | 40.70742 | -73.16126 | 2038 ft | 267 kts | 216° |
| 2026-04-28 03:29 | 40.69282 | -73.17631 | 2041 ft | 268 kts | 216° |
| 2026-04-28 03:29 | 40.67817 | -73.19147 | 2038 ft | 267 kts | 216° |
| 2026-04-28 03:29 | 40.66356 | -73.20657 | 2039 ft | 266 kts | 216° |
| 2026-04-28 03:29 | 40.64895 | -73.22167 | 2042 ft | 269 kts | 216° |
| 2026-04-28 03:30 | 40.63617 | -73.23944 | 2025 ft | 269 kts | 241° |
| 2026-04-28 03:30 | 40.63185 | -73.26242 | 1996 ft | 258 kts | 277° |
| 2026-04-28 03:30 | 40.63786 | -73.28363 | 2015 ft | 239 kts | 314° |
| 2026-04-28 03:30 | 40.65066 | -73.29430 | 2006 ft | 202 kts | 356° |
| 2026-04-28 03:31 | 40.66284 | -73.29111 | 1987 ft | 171 kts | 43° |
| 2026-04-28 03:31 | 40.66846 | -73.27832 | 2001 ft | 162 kts | 75° |
| 2026-04-28 03:31 | 40.67285 | -73.26478 | 1991 ft | 160 kts | 53° |
| 2026-04-28 03:31 | 40.68065 | -73.25405 | 1996 ft | 163 kts | 47° |
| 2026-04-28 03:32 | 40.68840 | -73.24345 | 1996 ft | 158 kts | 48° |
| 2026-04-28 03:32 | 40.69600 | -73.23338 | 2024 ft | 150 kts | 47° |
| 2026-04-28 03:32 | 40.70334 | -73.22385 | 2013 ft | 149 kts | 47° |
| 2026-04-28 03:32 | 40.71086 | -73.21403 | 2016 ft | 151 kts | 47° |
| 2026-04-28 03:33 | 40.71827 | -73.20433 | 2011 ft | 149 kts | 47° |
| 2026-04-28 03:33 | 40.72563 | -73.19473 | 1909 ft | 145 kts | 47° |
| 2026-04-28 03:33 | 40.73244 | -73.18589 | 1709 ft | 130 kts | 48° |
| 2026-04-28 03:33 | 40.73871 | -73.17765 | 1494 ft | 124 kts | 47° |
| 2026-04-28 03:34 | 40.74490 | -73.16953 | 1359 ft | 128 kts | 46° |
| 2026-04-28 03:34 | 40.75130 | -73.16122 | 1162 ft | 128 kts | 47° |
| 2026-04-28 03:34 | 40.75761 | -73.15292 | 996 ft | 130 kts | 46° |
| 2026-04-28 03:34 | 40.76406 | -73.14455 | 811 ft | 130 kts | 46° |
| 2026-04-28 03:35 | 40.77057 | -73.13606 | 614 ft | 134 kts | 46° |
| 2026-04-28 03:35 | 40.77716 | -73.12749 | 405 ft | 133 kts | 45° |
| 2026-04-28 03:35 | 40.78363 | -73.11900 | 235 ft | 129 kts | 45° |
| 2026-04-28 03:35 | 40.79000 | -73.11066 | 106 ft | 132 kts | 45° |
| 2026-04-28 03:36 | 40.79559 | -73.10334 | 91 ft | 76 kts | 45° |
| 2026-04-28 03:36 | 40.79799 | -73.10018 | 91 ft | 42 kts | 45° |
| 2026-04-28 03:36 | 40.80001 | -73.09755 | 95 ft | 40 kts | 45° |
| 2026-04-28 03:36 | 40.80168 | -73.09532 | 101 ft | 16 kts | 46° |
| 2026-04-28 03:37 | 40.80181 | -73.09427 | 101 ft | 13 kts | 125° |
| 2026-04-28 03:37 | 40.80089 | -73.09418 | 99 ft | 17 kts | 218° |
| 2026-04-28 03:37 | 40.79975 | -73.09470 | 97 ft | 18 kts | 180° |
| 2026-04-28 03:37 | 40.79836 | -73.09469 | 92 ft | 21 kts | 179° |
| 2026-04-28 03:38 | 40.79681 | -73.09468 | 88 ft | 23 kts | 180° |
| 2026-04-28 03:38 | 40.79518 | -73.09471 | 88 ft | 21 kts | 181° |
| 2026-04-28 03:38 | 40.79363 | -73.09470 | 85 ft | 23 kts | 180° |
| 2026-04-28 03:38 | 40.79218 | -73.09446 | 82 ft | 16 kts | 183° |
| 2026-04-28 03:39 | 40.79130 | -73.09506 | 81 ft | 12 kts | 163° |
| 2026-04-28 03:39 | 40.79072 | -73.09442 | 81 ft | 1 kts | 140° |
| 2026-04-28 03:39 | 40.79065 | -73.09444 | 81 ft | 1 kts | 209° |
| 2026-04-28 03:39 | 40.79055 | -73.09454 | 81 ft | 1 kts | 218° |
| 2026-04-28 03:40 | 40.79045 | -73.09464 | 81 ft | 1 kts | 219° |
| 2026-04-28 03:40 | 40.79036 | -73.09476 | 81 ft | 2 kts | 225° |
| 2026-04-28 03:40 | 40.79033 | -73.09480 | 81 ft | 0 kts | 225° |